Time;durP1;ratioP1;P1;durP2;ratioP2;P2;SDS_P1;SDS_P2;PMS_P1;PMS_P2;Temp;Humidity;BMP_temperature;BMP_pressure;BME280_temperature;BME280_humidity;BME280_pressure;Samples;Min_cycle;Max_cycle;Signal;HPM_P1;HPM_P2
2020/12/04 00:02:05;;;;;;;24.08;12.50;;;;;;;6.56;77.56;98310.97;5047439;28;20413;-80
2020/12/04 00:04:31;;;;;;;19.65;11.65;;;;;;;6.57;77.47;98296.84;5035832;28;20500;-80
2020/12/04 00:06:58;;;;;;;18.15;10.25;;;;;;;6.58;77.38;98288.03;5053360;28;20497;-80
2020/12/04 00:09:24;;;;;;;25.05;14.38;;;;;;;6.58;77.31;98288.03;5053355;28;20033;-80
2020/12/04 00:11:51;;;;;;;19.83;12.35;;;;;;;6.60;77.56;98286.13;5032815;28;20496;-80
2020/12/04 00:14:17;;;;;;;27.27;14.00;;;;;;;6.60;77.38;98281.72;5035669;28;20049;-80
2020/12/04 00:16:43;;;;;;;24.48;14.30;;;;;;;6.61;77.37;98269.41;5047193;28;20041;-80
2020/12/04 00:19:09;;;;;;;22.58;12.18;;;;;;;6.61;76.93;98272.03;5050522;28;20145;-80
2020/12/04 00:21:35;;;;;;;22.88;13.35;;;;;;;6.61;77.28;98256.25;5053425;28;20044;-80
2020/12/04 00:24:01;;;;;;;19.48;10.82;;;;;;;6.60;77.44;98254.59;5053297;28;20041;-80
2020/12/04 00:26:27;;;;;;;25.77;13.25;;;;;;;6.59;77.03;98258.16;5035123;28;20504;-80
2020/12/04 00:28:53;;;;;;;20.23;12.10;;;;;;;6.58;77.09;98252.06;5037130;28;20124;-80
2020/12/04 00:31:19;;;;;;;18.50;11.43;;;;;;;6.58;76.94;98243.34;5045057;28;20532;-79
2020/12/04 00:33:45;;;;;;;22.40;11.93;;;;;;;6.58;77.27;98248.59;5034688;23;20048;-79
2020/12/04 00:36:11;;;;;;;22.77;12.32;;;;;;;6.57;77.45;98239.00;5032403;28;20080;-79
2020/12/04 00:38:37;;;;;;;25.60;13.23;;;;;;;6.58;77.55;98238.06;5027820;28;20051;-79
2020/12/04 00:41:04;;;;;;;22.92;12.68;;;;;;;6.58;77.40;98235.44;5042091;28;20072;-78
2020/12/04 00:43:30;;;;;;;19.13;9.60;;;;;;;6.58;77.57;98220.50;5040153;28;20072;-79
2020/12/04 00:45:56;;;;;;;16.55;8.60;;;;;;;6.58;77.38;98214.41;5020091;28;20053;-78
2020/12/04 00:48:22;;;;;;;21.10;11.18;;;;;;;6.59;77.25;98210.81;5021251;28;20467;-79
2020/12/04 00:50:48;;;;;;;19.63;11.30;;;;;;;6.59;77.36;98205.56;5017571;28;20041;-79
2020/12/04 00:53:14;;;;;;;22.27;11.90;;;;;;;6.59;77.27;98205.56;5014366;28;20054;-79
2020/12/04 00:55:43;;;;;;;23.77;11.52;;;;;;;6.59;77.27;98200.28;5002972;28;20041;-79
2020/12/04 00:58:09;;;;;;;23.67;13.43;;;;;;;6.60;77.30;98202.00;5019868;28;20037;-79
2020/12/04 01:00:39;;;;;;;29.55;14.38;;;;;;;6.60;77.00;98191.47;5001031;28;20041;-78
2020/12/04 01:03:05;;;;;;;23.35;13.23;;;;;;;6.59;77.27;98181.88;4996961;28;20087;-79
2020/12/04 01:05:31;;;;;;;20.05;11.07;;;;;;;6.57;77.17;98182.03;5016481;28;20083;-78
2020/12/04 01:07:57;;;;;;;21.40;12.13;;;;;;;6.57;77.15;98181.16;5000495;28;20405;-79
2020/12/04 01:10:23;;;;;;;30.30;15.57;;;;;;;6.58;77.20;98182.84;5015000;28;20050;-78
2020/12/04 01:12:49;;;;;;;20.77;11.13;;;;;;;6.58;77.23;98178.41;5013623;28;20052;-78
2020/12/04 01:15:15;;;;;;;22.23;12.00;;;;;;;6.58;76.89;98177.59;4998612;28;20057;-78
2020/12/04 01:17:41;;;;;;;24.90;13.50;;;;;;;6.57;77.02;98174.13;5017990;28;20505;-78
2020/12/04 01:20:08;;;;;;;27.20;14.57;;;;;;;6.58;76.97;98167.06;5017595;28;20490;-79
2020/12/04 01:22:34;;;;;;;24.00;11.55;;;;;;;6.57;77.25;98170.63;5016719;28;20049;-79
2020/12/04 01:25:00;;;;;;;18.75;10.75;;;;;;;6.56;76.82;98153.19;5012200;28;20054;-79
2020/12/04 01:27:26;;;;;;;22.25;12.88;;;;;;;6.54;76.84;98149.84;5015310;28;20070;-78
2020/12/04 01:29:52;;;;;;;21.60;11.63;;;;;;;6.53;76.96;98148.16;4998553;28;20048;-78
2020/12/04 01:32:18;;;;;;;18.80;10.27;;;;;;;6.51;77.01;98145.63;5016120;28;20524;-79
2020/12/04 01:34:43;;;;;;;18.20;9.63;;;;;;;6.52;77.16;98135.97;5002604;28;20042;-78
2020/12/04 01:37:09;;;;;;;21.83;12.73;;;;;;;6.52;77.53;98135.97;5003683;28;20132;-79
2020/12/04 01:39:35;;;;;;;22.13;12.20;;;;;;;6.51;77.42;98139.53;5000665;28;20461;-78
2020/12/04 01:42:02;;;;;;;24.50;11.02;;;;;;;6.50;77.15;98129.94;5016631;28;20034;-79
2020/12/04 01:44:28;;;;;;;30.75;15.25;;;;;;;6.50;77.41;98127.31;5017216;28;20057;-79
2020/12/04 01:46:54;;;;;;;25.52;13.65;;;;;;;6.51;77.32;98134.28;5007734;28;20046;-79
2020/12/04 01:49:21;;;;;;;23.40;12.25;;;;;;;6.51;77.37;98119.34;5005731;28;20053;-79
2020/12/04 01:51:48;;;;;;;26.55;13.68;;;;;;;6.51;77.49;98123.75;5022387;28;20065;-78
2020/12/04 01:54:16;;;;;;;22.92;11.00;;;;;;;6.52;77.18;98117.56;5016061;28;20042;-78
2020/12/04 01:56:43;;;;;;;23.88;11.60;;;;;;;6.52;77.36;98109.69;4998241;28;20493;-78
2020/12/04 01:59:09;;;;;;;20.42;10.15;;;;;;;6.52;77.33;98109.69;5016304;28;20109;-78
2020/12/04 02:01:38;;;;;;;26.35;13.65;;;;;;;6.53;77.42;98111.34;5000608;28;20060;-77
2020/12/04 02:04:08;;;;;;;20.08;10.55;;;;;;;6.53;77.55;98106.06;5019340;28;20497;-77
2020/12/04 02:06:43;;;;;;;28.88;13.38;;;;;;;6.53;77.51;98100.81;5011404;28;20553;-78
2020/12/04 02:09:14;;;;;;;28.65;13.25;;;;;;;6.53;77.47;98095.56;5026864;28;20037;-78
2020/12/04 02:11:42;;;;;;;28.77;12.18;;;;;;;6.55;77.65;98088.41;5025442;28;20042;-78
2020/12/04 02:14:08;;;;;;;27.00;12.35;;;;;;;6.55;77.41;98083.13;5026396;28;20045;-78
2020/12/04 02:16:41;;;;;;;27.48;13.30;;;;;;;6.54;77.35;98076.22;5029108;28;20085;-78
2020/12/04 02:19:07;;;;;;;26.83;12.85;;;;;;;6.55;77.44;98062.09;5015957;28;20116;-78
2020/12/04 02:21:33;;;;;;;28.75;13.18;;;;;;;6.56;77.41;98063.78;4996523;28;20567;-79
2020/12/04 02:24:00;;;;;;;26.98;13.73;;;;;;;6.56;77.60;98063.78;5019727;28;20145;-78
2020/12/04 02:26:27;;;;;;;28.08;14.15;;;;;;;6.55;77.64;98047.16;4996271;28;20046;-78
2020/12/04 02:28:53;;;;;;;22.60;10.52;;;;;;;6.55;77.30;98046.31;5015422;28;20038;-78
2020/12/04 02:31:22;;;;;;;24.33;11.40;;;;;;;6.56;77.39;98053.28;5013725;28;20041;-78
2020/12/04 02:33:48;;;;;;;24.88;11.20;;;;;;;6.56;77.50;98037.50;4999214;28;20050;-77
2020/12/04 02:36:15;;;;;;;23.23;11.73;;;;;;;6.55;77.19;98031.38;5013341;28;20049;-77
2020/12/04 02:38:42;;;;;;;27.52;12.45;;;;;;;6.55;77.47;98020.03;5016563;28;20091;-78
2020/12/04 02:41:09;;;;;;;19.33;10.05;;;;;;;6.55;77.39;98014.78;5014075;28;20053;-78
2020/12/04 02:43:35;;;;;;;15.65;8.23;;;;;;;6.55;77.77;98010.34;5015582;28;20073;-77
2020/12/04 02:46:02;;;;;;;23.55;11.57;;;;;;;6.55;77.51;97999.00;4996899;28;20152;-77
2020/12/04 02:48:29;;;;;;;17.95;10.95;;;;;;;6.57;77.64;97997.09;4997468;28;20141;-78
2020/12/04 02:50:55;;;;;;;14.00;7.38;;;;;;;6.58;77.52;97998.78;5022615;28;20448;-79
2020/12/04 02:53:20;;;;;;;15.75;9.57;;;;;;;6.58;77.62;98009.31;5000685;28;20047;-77
2020/12/04 02:55:46;;;;;;;22.05;10.00;;;;;;;6.58;77.73;97993.53;4995739;28;20045;-77
2020/12/04 02:58:12;;;;;;;17.48;8.63;;;;;;;6.59;77.36;97984.66;4998185;28;20082;-77
2020/12/04 03:00:39;;;;;;;17.40;8.73;;;;;;;6.61;77.74;97988.00;5014616;28;20042;-77
2020/12/04 03:03:05;;;;;;;18.38;9.73;;;;;;;6.62;77.25;97984.44;5016000;28;20046;-78
2020/12/04 03:05:31;;;;;;;13.82;8.05;;;;;;;6.61;77.42;97977.50;5015650;28;20087;-78
2020/12/04 03:07:57;;;;;;;15.98;8.40;;;;;;;6.61;77.59;97970.47;5009698;28;20501;-78
2020/12/04 03:10:23;;;;;;;15.43;8.90;;;;;;;6.61;77.89;97977.50;5016286;28;20050;-78
2020/12/04 03:12:49;;;;;;;15.35;8.90;;;;;;;6.61;77.61;97966.97;5014024;28;20111;-77
2020/12/04 03:15:15;;;;;;;10.75;7.57;;;;;;;6.59;77.34;97963.63;5017144;28;20045;-77
2020/12/04 03:17:41;;;;;;;21.10;9.15;;;;;;;6.57;77.30;97955.03;5016969;28;20116;-77
2020/12/04 03:20:07;;;;;;;10.02;5.07;;;;;;;6.55;77.44;97951.66;5015956;28;20501;-78
2020/12/04 03:22:33;;;;;;;15.65;7.85;;;;;;;6.53;77.64;97957.03;5023297;28;20046;-77
2020/12/04 03:24:59;;;;;;;13.20;7.38;;;;;;;6.54;77.30;97965.78;5016600;28;20497;-78
2020/12/04 03:27:25;;;;;;;10.80;6.32;;;;;;;6.54;77.55;97956.09;5017243;28;20479;-78
2020/12/04 03:29:51;;;;;;;14.25;7.47;;;;;;;6.56;77.77;97953.34;5000665;28;20042;-78
2020/12/04 03:32:17;;;;;;;14.25;7.80;;;;;;;6.57;77.32;97957.66;5002871;28;20041;-78
2020/12/04 03:34:43;;;;;;;16.55;9.55;;;;;;;6.61;77.48;97956.47;5025179;28;20037;-79
2020/12/04 03:37:09;;;;;;;12.48;6.85;;;;;;;6.62;77.72;97960.78;5015040;28;21773;-79
2020/12/04 03:39:35;;;;;;;13.95;7.72;;;;;;;6.64;77.64;97972.03;5027312;28;20449;-78
2020/12/04 03:42:03;;;;;;;19.63;9.48;;;;;;;6.66;77.69;97972.75;5022490;28;20445;-79
2020/12/04 03:44:29;;;;;;;13.32;6.80;;;;;;;6.68;77.72;97976.09;5031739;28;20050;-79
2020/12/04 03:46:57;;;;;;;17.02;8.75;;;;;;;6.71;77.83;97961.88;5021304;28;20095;-78
2020/12/04 03:49:23;;;;;;;13.45;6.88;;;;;;;6.72;77.44;97948.59;5024497;28;20111;-79
2020/12/04 03:51:49;;;;;;;19.20;8.57;;;;;;;6.73;77.37;97965.25;5027882;28;20121;-78
2020/12/04 03:54:15;;;;;;;12.43;6.95;;;;;;;6.74;77.56;97962.50;5027006;28;20041;-78
2020/12/04 03:56:41;;;;;;;15.43;8.27;;;;;;;6.74;77.76;97967.75;4999468;28;20069;-78
2020/12/04 03:59:07;;;;;;;10.80;6.07;;;;;;;6.75;77.62;97958.91;5033803;28;20077;-78
2020/12/04 04:01:34;;;;;;;11.13;6.80;;;;;;;6.74;77.55;97951.97;5035479;28;20105;-78
2020/12/04 04:04:00;;;;;;;14.60;7.63;;;;;;;6.74;77.18;97946.72;5005649;28;20052;-79
2020/12/04 04:06:26;;;;;;;11.30;7.25;;;;;;;6.73;77.32;97950.28;5017822;28;20525;-79
2020/12/04 04:08:52;;;;;;;14.02;7.07;;;;;;;6.73;77.79;97950.28;5014660;28;20500;-79
2020/12/04 04:11:19;;;;;;;14.13;6.57;;;;;;;6.74;77.86;97951.97;4998190;28;20046;-79
2020/12/04 04:13:45;;;;;;;14.25;7.78;;;;;;;6.77;77.78;97946.47;5015611;28;20038;-79
2020/12/04 04:16:11;;;;;;;11.20;6.82;;;;;;;6.79;77.51;97949.81;4997842;28;20068;-78
2020/12/04 04:18:37;;;;;;;10.98;6.82;;;;;;;6.79;77.83;97962.13;5013610;28;20559;-78
2020/12/04 04:21:12;;;;;;;8.55;5.82;;;;;;;6.79;77.50;97944.56;5001281;28;20052;-79
2020/12/04 04:23:39;;;;;;;12.13;6.00;;;;;;;6.81;77.79;97953.16;5016653;28;20042;-79
2020/12/04 04:26:07;;;;;;;10.82;5.47;;;;;;;6.83;77.71;97951.25;5020082;28;20415;-79
2020/12/04 04:28:34;;;;;;;9.57;5.60;;;;;;;6.85;77.80;97963.47;4995539;28;20042;-79
2020/12/04 04:30:59;;;;;;;6.63;4.35;;;;;;;6.88;77.85;97968.50;5017511;28;20339;-79
2020/12/04 04:33:26;;;;;;;7.20;4.97;;;;;;;6.90;77.81;97961.31;4997122;28;20076;-78
2020/12/04 04:35:53;;;;;;;6.22;3.95;;;;;;;6.93;77.89;97955.81;5013432;28;20034;-79
2020/12/04 04:38:19;;;;;;;10.02;5.28;;;;;;;6.98;77.84;97964.19;5018830;28;20041;-78
2020/12/04 04:40:45;;;;;;;6.75;4.53;;;;;;;7.02;77.34;97963.00;5013559;28;20103;-79
2020/12/04 04:43:15;;;;;;;7.40;4.05;;;;;;;7.04;77.67;97963.72;5021547;28;20049;-79
2020/12/04 04:45:42;;;;;;;7.10;4.18;;;;;;;7.09;77.74;97961.56;5014739;28;20046;-79
2020/12/04 04:48:15;;;;;;;7.65;4.20;;;;;;;7.13;77.50;97963.00;5013642;28;20042;-78
2020/12/04 04:50:44;;;;;;;8.60;4.70;;;;;;;7.16;77.20;97962.78;5013380;28;20417;-78
2020/12/04 04:53:11;;;;;;;7.13;4.30;;;;;;;7.16;77.21;97962.78;4996428;28;20452;-78
2020/12/04 04:55:42;;;;;;;6.18;3.90;;;;;;;7.15;76.95;97955.00;5014181;28;20118;-78
2020/12/04 04:58:09;;;;;;;7.13;3.80;;;;;;;7.10;77.26;97958.00;5015473;28;20045;-79
2020/12/04 05:00:35;;;;;;;5.95;3.53;;;;;;;7.06;76.77;97959.16;5016134;28;20046;-78
2020/12/04 05:03:04;;;;;;;4.60;2.75;;;;;;;7.02;77.16;97965.63;5013871;28;20056;-78
2020/12/04 05:05:45;;;;;;;6.68;4.10;;;;;;;6.99;77.23;97955.34;5014019;28;20042;-78
2020/12/04 05:08:12;;;;;;;5.70;3.85;;;;;;;6.99;77.11;97960.63;5013290;28;20501;-78
2020/12/04 05:10:38;;;;;;;5.53;3.30;;;;;;;7.02;77.64;97955.09;4999996;28;20050;-78
2020/12/04 05:13:04;;;;;;;4.50;3.45;;;;;;;7.09;77.85;97940.53;5015576;28;20061;-78
2020/12/04 05:15:31;;;;;;;7.30;3.60;;;;;;;7.17;77.82;97938.13;5011857;28;20053;-78
2020/12/04 05:18:23;;;;;;;6.15;4.40;;;;;;;7.18;77.17;97934.53;5017249;28;20038;-78
2020/12/04 05:20:50;;;;;;;6.95;4.30;;;;;;;7.17;76.92;97948.66;4995245;28;20050;-79
2020/12/04 05:23:17;;;;;;;6.05;3.47;;;;;;;7.13;77.16;97951.66;5008086;28;20069;-79
2020/12/04 05:25:46;;;;;;;7.35;4.15;;;;;;;7.13;77.21;97949.84;4997310;28;20092;-79
2020/12/04 05:28:24;;;;;;;6.80;4.10;;;;;;;7.13;77.29;97963.00;5013381;28;20060;-79
2020/12/04 05:31:05;;;;;;;6.32;4.00;;;;;;;7.19;77.59;97952.00;5024959;28;20045;-79
2020/12/04 05:33:31;;;;;;;5.60;3.67;;;;;;;7.22;77.18;97951.78;4997451;28;20061;-79
2020/12/04 05:35:57;;;;;;;5.82;3.85;;;;;;;7.26;77.50;97956.81;5008292;28;20045;-78
2020/12/04 05:38:23;;;;;;;3.85;2.75;;;;;;;7.31;77.70;97959.91;4996137;28;20049;-78
2020/12/04 05:41:09;;;;;;;5.55;3.30;;;;;;;7.35;77.09;97971.88;5029258;28;20048;-78
2020/12/04 05:43:38;;;;;;;6.68;3.75;;;;;;;7.35;77.40;97967.44;5035370;28;20053;-78
2020/12/04 05:46:25;;;;;;;6.68;3.47;;;;;;;7.30;76.93;97968.78;5001533;28;20073;-79
2020/12/04 05:49:09;;;;;;;6.18;3.25;;;;;;;7.25;77.04;97965.66;5015350;28;20057;-78
2020/12/04 05:51:37;;;;;;;8.23;4.32;;;;;;;7.21;76.64;97976.44;5012902;28;20052;-79
2020/12/04 05:54:05;;;;;;;5.95;3.65;;;;;;;7.16;77.14;97972.47;4994849;28;20041;-79
2020/12/04 05:56:33;;;;;;;6.78;3.90;;;;;;;7.14;77.28;97964.69;5000108;28;20061;-78
2020/12/04 05:59:02;;;;;;;8.82;3.83;;;;;;;7.12;77.10;97966.63;5015223;28;20046;-79
2020/12/04 06:01:28;;;;;;;6.53;3.70;;;;;;;7.10;76.86;97973.78;5001320;28;20132;-79
2020/12/04 06:03:56;;;;;;;9.25;3.85;;;;;;;7.09;77.43;97972.09;5014866;28;20041;-78
2020/12/04 06:06:32;;;;;;;4.35;2.72;;;;;;;7.16;77.54;97986.47;4986054;28;20416;-79
2020/12/04 06:09:06;;;;;;;6.65;3.70;;;;;;;7.24;77.97;97985.06;5024889;28;20543;-79
2020/12/04 06:11:34;;;;;;;4.68;3.50;;;;;;;7.30;77.54;97989.81;5014340;28;20050;-79
2020/12/04 06:14:01;;;;;;;6.57;3.88;;;;;;;7.36;77.82;97989.34;5002098;28;20041;-79
2020/12/04 06:16:28;;;;;;;6.60;4.00;;;;;;;7.45;78.08;97987.81;5015061;28;20061;-79
2020/12/04 06:18:54;;;;;;;6.43;3.72;;;;;;;7.52;77.91;97987.19;4999934;28;20038;-78
2020/12/04 06:21:49;;;;;;;4.60;3.25;;;;;;;7.60;77.73;97987.41;5015813;28;20442;-79
2020/12/04 06:24:15;;;;;;;4.95;3.42;;;;;;;7.69;77.81;97995.56;5012803;28;20091;-79
2020/12/04 06:26:46;;;;;;;4.70;3.08;;;;;;;7.75;77.74;98000.34;5002929;28;20041;-78
2020/12/04 06:29:13;;;;;;;5.03;3.50;;;;;;;7.80;77.37;98003.47;5018123;28;20056;-79
2020/12/04 06:31:39;;;;;;;4.88;3.00;;;;;;;7.76;76.75;98007.28;5026652;28;20409;-79
2020/12/04 06:34:16;;;;;;;6.38;3.92;;;;;;;7.69;76.84;98012.22;5032985;23;20030;-80
2020/12/04 06:36:43;;;;;;;6.28;4.32;;;;;;;7.67;76.83;98018.56;5015904;28;20049;-80
2020/12/04 06:39:25;;;;;;;4.63;3.22;;;;;;;7.70;77.56;98018.31;5033793;28;20087;-80
2020/12/04 06:41:52;;;;;;;6.93;3.50;;;;;;;7.77;77.55;98024.78;5033106;28;20072;-80
2020/12/04 06:44:20;;;;;;;6.47;3.55;;;;;;;7.84;77.75;98020.69;5012421;28;20107;-80
2020/12/04 06:46:55;;;;;;;6.13;3.47;;;;;;;7.91;77.71;98029.81;5032735;28;20523;-81
2020/12/04 06:52:12;;;;;;;7.40;3.70;;;;;;;8.06;77.86;98024.25;5033509;28;20056;-80
2020/12/04 06:54:42;;;;;;;5.15;3.47;;;;;;;8.13;77.93;98031.53;4998332;28;20048;-80
2020/12/04 06:57:08;;;;;;;5.10;2.80;;;;;;;8.19;77.55;98036.34;5034565;28;20041;-80
2020/12/04 06:59:37;;;;;;;4.68;2.70;;;;;;;8.26;77.97;98031.38;5017356;28;20120;-80
2020/12/04 07:02:14;;;;;;;4.95;2.45;;;;;;;8.31;77.51;98042.41;5031695;28;20049;-80
2020/12/04 07:04:48;;;;;;;4.00;2.45;;;;;;;8.37;77.48;98043.72;5032260;28;20050;-80
2020/12/04 07:07:18;;;;;;;3.75;2.55;;;;;;;8.43;77.53;98037.13;5018339;28;20091;-81
2020/12/04 07:09:58;;;;;;;3.70;2.63;;;;;;;8.49;77.97;98041.91;5015996;28;20041;-81
2020/12/04 07:12:27;;;;;;;7.28;2.85;;;;;;;8.54;77.79;98050.28;4998943;28;20038;-81
2020/12/04 07:15:02;;;;;;;5.45;3.05;;;;;;;8.57;77.51;98055.31;5015784;28;20749;-81
2020/12/04 07:17:29;;;;;;;3.40;2.80;;;;;;;8.61;77.50;98055.88;5032674;28;20071;-81
2020/12/04 07:19:59;;;;;;;3.65;2.70;;;;;;;8.64;77.26;98060.91;5017290;28;20044;-80
2020/12/04 07:22:26;;;;;;;4.70;2.85;;;;;;;8.67;77.46;98060.69;5017125;28;20041;-80
2020/12/04 07:24:57;;;;;;;5.97;3.33;;;;;;;8.68;77.19;98063.19;5014514;28;20497;-80
2020/12/04 07:27:29;;;;;;;5.50;2.72;;;;;;;8.68;77.14;98068.47;4988754;28;20131;-80
2020/12/04 07:29:56;;;;;;;3.17;2.40;;;;;;;8.69;77.11;98080.69;5013556;28;20120;-80
2020/12/04 07:32:23;;;;;;;3.13;2.53;;;;;;;8.71;77.19;98094.59;4998111;28;20049;-80
2020/12/04 07:34:50;;;;;;;3.22;2.20;;;;;;;8.72;77.04;98091.00;4996911;28;20049;-80
2020/12/04 07:37:16;;;;;;;3.45;2.60;;;;;;;8.76;76.98;98102.16;5012769;28;20049;-80
2020/12/04 07:39:43;;;;;;;3.40;2.00;;;;;;;8.76;76.86;98102.97;5029476;28;20055;-79
2020/12/04 07:42:12;;;;;;;3.70;2.60;;;;;;;8.75;77.08;98106.56;5014220;28;20052;-80
2020/12/04 07:44:51;;;;;;;3.05;1.80;;;;;;;8.74;77.05;98115.47;4999327;28;20045;-80
2020/12/04 07:47:18;;;;;;;4.22;2.78;;;;;;;8.76;77.13;98124.09;5011722;28;20057;-80
2020/12/04 07:49:51;;;;;;;4.43;2.55;;;;;;;8.77;77.02;98120.47;5014487;28;20037;-80
2020/12/04 07:52:21;;;;;;;2.85;2.00;;;;;;;8.82;77.22;98132.47;5034033;28;20076;-80
2020/12/04 07:54:59;;;;;;;2.83;1.92;;;;;;;8.85;77.52;98133.03;5013729;28;20046;-80
2020/12/04 07:57:35;;;;;;;3.00;1.65;;;;;;;8.85;77.32;98143.59;5033998;28;20045;-80
2020/12/04 08:00:04;;;;;;;2.53;1.50;;;;;;;8.90;77.45;98156.44;5008408;28;20049;-80
2020/12/04 08:02:36;;;;;;;4.40;1.87;;;;;;;8.97;77.78;98162.91;5039803;28;20128;-80
2020/12/04 08:05:02;;;;;;;2.58;1.70;;;;;;;9.04;77.38;98164.06;5001738;28;20045;-80
2020/12/04 08:07:29;;;;;;;2.33;1.40;;;;;;;9.10;77.82;98170.66;5014059;28;20045;-80
2020/12/04 08:09:56;;;;;;;3.28;1.50;;;;;;;9.16;77.28;98178.06;5017227;28;20068;-81
2020/12/04 08:12:33;;;;;;;2.42;1.52;;;;;;;9.22;77.67;98174.06;5033991;28;20053;-81
2020/12/04 08:15:02;;;;;;;2.03;1.38;;;;;;;9.29;77.80;98183.19;5034462;28;20045;-80
2020/12/04 08:17:30;;;;;;;1.98;1.20;;;;;;;9.35;77.82;98187.94;4999496;28;20045;-80
2020/12/04 08:19:59;;;;;;;2.90;1.23;;;;;;;9.41;77.76;98182.16;5034072;28;20457;-80
2020/12/04 08:22:30;;;;;;;2.80;1.10;;;;;;;9.50;77.54;98191.13;5015543;28;20042;-80
2020/12/04 08:25:07;;;;;;;3.28;1.00;;;;;;;9.59;77.56;98194.78;5016051;28;20040;-81
2020/12/04 08:27:45;;;;;;;1.92;0.80;;;;;;;9.68;77.49;98183.44;5013877;28;20057;-80
2020/12/04 08:30:17;;;;;;;1.70;0.80;;;;;;;9.75;77.07;98179.31;5013843;28;20046;-80
2020/12/04 08:32:47;;;;;;;5.00;0.90;;;;;;;9.82;76.91;98185.75;4999933;28;20045;-80
2020/12/04 08:35:14;;;;;;;0.70;0.52;;;;;;;9.90;76.34;98178.00;5033146;28;20041;-81
2020/12/04 08:37:41;;;;;;;1.52;0.80;;;;;;;9.99;76.76;98183.50;5014029;28;20428;-79
2020/12/04 08:40:29;;;;;;;4.45;0.65;;;;;;;10.02;76.12;98185.88;5014814;28;20053;-82
2020/12/04 08:43:15;;;;;;;1.13;0.60;;;;;;;10.03;76.14;98182.28;5014161;28;20045;-80
2020/12/04 08:45:43;;;;;;;2.55;0.80;;;;;;;10.03;75.76;98198.13;5014577;28;20076;-80
2020/12/04 08:48:21;;;;;;;2.08;0.70;;;;;;;10.03;75.74;98187.56;5015532;28;20045;-80
2020/12/04 08:50:50;;;;;;;3.42;0.98;;;;;;;10.08;75.53;98185.38;5032949;28;20519;-80
2020/12/04 08:53:18;;;;;;;1.63;0.80;;;;;;;10.10;75.05;98199.28;5012444;28;20539;-80
2020/12/04 08:55:46;;;;;;;1.13;0.60;;;;;;;10.36;75.51;98194.44;5016962;28;20068;-80
2020/12/04 08:58:14;;;;;;;1.63;0.60;;;;;;;10.86;74.65;98206.81;5029403;28;20046;-80
2020/12/04 09:00:41;;;;;;;1.77;0.88;;;;;;;11.00;74.37;98214.41;5030845;28;20116;-82
2020/12/04 09:03:07;;;;;;;1.30;0.80;;;;;;;11.05;73.53;98225.41;5010953;28;20044;-80
2020/12/04 09:05:34;;;;;;;0.65;0.50;;;;;;;11.02;73.53;98223.03;4997946;28;20413;-80
2020/12/04 09:08:00;;;;;;;1.30;0.63;;;;;;;10.95;73.59;98232.50;5031137;28;20144;-80
2020/12/04 09:10:26;;;;;;;3.25;0.70;;;;;;;10.97;74.20;98225.25;5016150;28;20095;-80
2020/12/04 09:12:55;;;;;;;2.03;0.82;;;;;;;11.00;74.84;98230.28;5014719;28;20491;-80
2020/12/04 09:15:21;;;;;;;1.30;0.60;;;;;;;11.08;74.68;98230.44;4993067;28;20049;-80
2020/12/04 09:17:47;;;;;;;0.90;0.57;;;;;;;11.15;74.52;98235.16;5009984;28;20049;-81
2020/12/04 09:20:15;;;;;;;0.60;0.50;;;;;;;11.23;73.38;98227.41;5010186;28;20047;-80
2020/12/04 09:22:42;;;;;;;1.10;0.50;;;;;;;11.26;73.67;98245.66;5029653;28;20053;-80
2020/12/04 09:25:11;;;;;;;1.10;0.65;;;;;;;11.18;73.19;98248.97;5017451;28;20493;-80
2020/12/04 09:27:38;;;;;;;2.35;1.30;;;;;;;11.12;73.73;98248.72;5010876;28;20059;-80
2020/12/04 09:30:06;;;;;;;1.10;0.52;;;;;;;11.13;73.89;98266.25;5010438;28;20069;-80
2020/12/04 09:32:33;;;;;;;1.25;0.60;;;;;;;11.14;74.05;98270.59;5001608;28;20088;-80
2020/12/04 09:35:00;;;;;;;1.55;0.63;;;;;;;11.21;73.73;98280.50;5034047;28;20053;-80
2020/12/04 09:37:28;;;;;;;2.25;0.70;;;;;;;11.34;72.80;98280.25;5013025;28;20057;-79
2020/12/04 09:40:10;;;;;;;1.40;0.73;;;;;;;12.29;72.62;98286.66;4994574;28;20734;-80
2020/12/04 09:42:37;;;;;;;1.95;0.60;;;;;;;13.00;71.60;98286.13;4995556;28;20140;-81
2020/12/04 09:45:05;;;;;;;0.70;0.57;;;;;;;13.32;70.98;98284.03;5013970;28;20045;-80
2020/12/04 09:47:33;;;;;;;1.73;0.63;;;;;;;13.47;70.01;98297.63;5013641;28;20467;-81
2020/12/04 09:49:59;;;;;;;1.17;0.70;;;;;;;13.74;69.13;98294.91;5034252;28;20037;-81
2020/12/04 09:52:26;;;;;;;0.65;0.52;;;;;;;14.04;68.71;98279.53;5011717;28;20582;-81
2020/12/04 09:54:52;;;;;;;1.20;0.60;;;;;;;14.43;67.95;98279.16;5001680;28;20045;-80
2020/12/04 09:57:18;;;;;;;2.13;0.70;;;;;;;14.82;67.97;98292.03;5017945;28;20049;-82
2020/12/04 09:59:45;;;;;;;1.83;0.60;;;;;;;15.15;67.00;98289.53;5017345;28;20045;-81
2020/12/04 10:02:11;;;;;;;2.17;0.70;;;;;;;15.08;65.57;98299.16;5019230;28;20073;-81
2020/12/04 10:04:39;;;;;;;0.95;0.60;;;;;;;15.13;64.30;98287.00;5037304;28;20048;-81
2020/12/04 10:07:06;;;;;;;1.88;0.60;;;;;;;15.14;64.36;98303.84;5032884;28;20444;-81
2020/12/04 10:09:32;;;;;;;1.02;0.60;;;;;;;15.11;64.42;98314.84;5020002;28;20527;-81
2020/12/04 10:11:59;;;;;;;1.90;0.63;;;;;;;15.06;64.23;98306.47;5019325;28;20045;-82
2020/12/04 10:14:25;;;;;;;0.85;0.50;;;;;;;15.05;64.71;98315.47;5018334;28;20049;-82
2020/12/04 10:16:52;;;;;;;0.60;0.50;;;;;;;14.88;64.78;98315.41;5004249;28;20049;-82
2020/12/04 10:19:19;;;;;;;1.15;0.70;;;;;;;14.47;65.12;98320.47;5017112;28;20045;-80
2020/12/04 10:21:46;;;;;;;1.60;0.50;;;;;;;14.55;65.73;98331.16;5002540;28;20787;-80
2020/12/04 10:24:14;;;;;;;0.85;0.60;;;;;;;14.65;65.43;98319.59;5035822;28;20041;-80
2020/12/04 10:26:42;;;;;;;0.75;0.50;;;;;;;14.28;65.14;98329.47;5002273;28;20516;-81
2020/12/04 10:29:09;;;;;;;1.10;0.63;;;;;;;14.63;65.66;98332.22;5002318;28;20045;-80
2020/12/04 10:31:35;;;;;;;1.83;0.60;;;;;;;14.99;65.42;98328.44;5036986;28;20051;-81
2020/12/04 10:34:02;;;;;;;1.08;0.50;;;;;;;15.19;66.14;98322.88;5002394;28;20060;-81
2020/12/04 10:36:31;;;;;;;1.60;0.60;;;;;;;14.74;65.58;98340.78;5033646;28;20069;-81
2020/12/04 10:38:59;;;;;;;0.43;0.43;;;;;;;14.41;66.38;98345.06;5037625;28;20049;-81
2020/12/04 10:41:30;;;;;;;0.75;0.52;;;;;;;13.93;67.13;98352.47;5018429;28;20071;-81
2020/12/04 10:43:57;;;;;;;0.60;0.52;;;;;;;13.49;67.66;98354.19;5016646;28;20046;-80
2020/12/04 10:46:22;;;;;;;2.15;0.70;;;;;;;13.33;68.61;98360.97;5017720;28;20060;-81
2020/12/04 10:48:48;;;;;;;1.25;0.55;;;;;;;13.41;68.26;98352.25;5019132;28;20049;-81
2020/12/04 10:51:19;;;;;;;2.00;0.73;;;;;;;13.39;68.70;98349.75;5035157;28;20072;-81
2020/12/04 10:53:45;;;;;;;1.38;0.60;;;;;;;13.27;68.79;98361.53;4999707;28;20132;-80
2020/12/04 10:56:11;;;;;;;0.73;0.60;;;;;;;13.40;68.70;98362.03;5016728;28;20045;-81
2020/12/04 10:58:37;;;;;;;1.67;0.60;;;;;;;13.97;68.58;98347.66;4996497;28;20419;-82
2020/12/04 11:01:03;;;;;;;0.60;0.50;;;;;;;14.42;67.54;98336.06;5000526;28;20061;-81
2020/12/04 11:03:42;;;;;;;0.57;0.50;;;;;;;14.80;65.43;98344.66;5036181;28;20053;-80
2020/12/04 11:06:08;;;;;;;0.80;0.45;;;;;;;14.78;66.10;98357.31;5044064;28;20096;-81
2020/12/04 11:08:34;;;;;;;1.75;0.50;;;;;;;14.25;65.91;98360.91;5014832;28;20061;-81
2020/12/04 11:11:00;;;;;;;1.33;0.52;;;;;;;13.67;66.00;98356.84;5032991;28;20033;-81
2020/12/04 11:13:37;;;;;;;1.27;0.55;;;;;;;13.18;67.12;98367.72;5044921;28;20041;-80
2020/12/04 11:16:03;;;;;;;1.52;0.70;;;;;;;12.82;67.55;98367.56;5018944;28;20049;-81
2020/12/04 11:18:29;;;;;;;1.15;0.70;;;;;;;12.57;68.63;98369.88;5016266;28;20037;-80
2020/12/04 11:20:55;;;;;;;1.55;0.80;;;;;;;12.60;68.99;98368.75;5015528;28;20135;-80
2020/12/04 11:23:21;;;;;;;0.77;0.60;;;;;;;12.50;69.52;98379.38;5016133;28;20049;-80
2020/12/04 11:25:47;;;;;;;2.08;1.02;;;;;;;12.40;70.10;98378.56;5033115;28;20116;-80
2020/12/04 11:28:13;;;;;;;2.22;1.15;;;;;;;12.31;70.26;98379.41;5033918;28;20058;-80
2020/12/04 11:30:39;;;;;;;3.45;1.60;;;;;;;12.23;70.69;98383.59;5029433;28;20054;-83
2020/12/04 11:33:05;;;;;;;2.53;1.27;;;;;;;12.16;71.11;98397.56;5016319;28;20105;-80
2020/12/04 11:35:31;;;;;;;5.07;2.05;;;;;;;11.98;71.30;98392.13;5012747;28;20045;-81
2020/12/04 11:37:59;;;;;;;4.75;2.17;;;;;;;11.85;71.53;98393.19;5000705;28;20037;-80
2020/12/04 11:40:26;;;;;;;6.47;2.95;;;;;;;11.78;71.63;98392.06;5026094;28;20548;-81
2020/12/04 11:42:54;;;;;;;7.88;3.47;;;;;;;11.81;72.04;98389.16;5016882;28;20064;-81